Latest Weather Observations for Murganella Airstrip

IDD60801

Issued at 1:01 pm CST Sunday 21 December 2014 (issued every 30 minutes, with the page automatically refreshed every 10 minutes)

About weather observations | Map of weather stations | Latest weather observations for NT | Other Formats
Station Details ID: 014309 Name: MURGANELLA AIRSTRIP Lat: -11.55 Lon: 132.93 Height: 9.5 m
Data from the previous 72 hours. | See also: Recent months for locations in Northern Territory
Date/Time
CST
Temp
°C
App
Temp
°C
Dew
Point
Rel
Hum
%
Delta-T
°C
Wind Press
QNH
hPa
Press
MSL
hPa
Rain
since 9 am
mm
Dir
 
Spd
km/h
Gust
km/h
Spd
kts
Gust
kts
21/01:00pm 35.3 38.9 23.0 49 8.5 N 9 17 5 9 1007.3 1007.2 0.0
21/12:30pm 34.8 39.6 24.4 54 7.3 NNW 7 11 4 6 1007.9 1007.8 0.0
21/12:00pm 33.6 37.3 23.3 55 7.2 NNW 9 20 5 11 1008.4 1008.3 0.0
21/11:30am 33.8 38.3 22.9 53 7.5 NW 4 7 2 4 1009.0 1008.9 0.0
21/11:00am 33.5 37.8 22.6 53 7.5 NW 4 9 2 5 1009.5 1009.4 0.0
21/10:30am 34.0 37.8 22.7 51 7.8 SE 7 11 4 6 1010.0 1009.9 0.0
21/10:00am 32.7 36.9 23.1 57 6.6 NE 6 7 3 4 1010.2 1010.1 0.0
21/09:30am 32.5 37.9 23.2 58 6.4 CALM 0 4 0 2 1010.2 1010.1 0.0
21/09:00am 31.9 36.4 23.7 62 5.7 SSW 6 9 3 5 1010.0 1009.9 0.0
21/08:30am 31.7 38.8 26.0 72 4.1 CALM 0 4 0 2 1009.6 1009.5 0.0
21/08:00am 30.4 38.3 27.2 83 2.3 CALM 0 0 0 0 1009.3 1009.2 0.0
21/07:30am 28.1 36.7 28.1 100 0.0 CALM 0 0 0 0 1009.2 1009.1 0.0
21/07:00am 26.9 34.6 26.9 100 0.0 CALM 0 0 0 0 1008.6 1008.5 0.0
21/06:30am 26.2 33.4 26.2 100 0.0 CALM 0 0 0 0 1008.4 1008.3 0.0
21/06:00am 26.2 33.4 26.2 100 0.0 CALM 0 0 0 0 1007.8 1007.7 0.0
21/05:30am 26.3 33.6 26.3 100 0.0 CALM 0 0 0 0 1007.3 1007.2 0.0
21/05:00am 26.5 33.9 26.5 100 0.0 CALM 0 0 0 0 1007.4 1007.3 0.0
21/04:30am 26.5 33.9 26.5 100 0.0 CALM 0 0 0 0 1007.3 1007.2 0.0
21/04:00am 26.4 33.8 26.4 100 0.0 CALM 0 0 0 0 1007.0 1006.9 0.0
21/03:30am 26.1 33.3 26.1 100 0.0 CALM 0 0 0 0 1006.9 1006.8 0.0
21/03:00am 25.8 32.8 25.8 100 0.0 CALM 0 0 0 0 1007.1 1007.0 0.0
21/02:30am 25.6 32.4 25.6 100 0.0 CALM 0 0 0 0 1007.3 1007.2 0.0
21/02:00am 25.9 32.9 25.9 100 0.0 CALM 0 0 0 0 1007.6 1007.5 0.0
21/01:30am 26.3 33.6 26.3 100 0.0 CALM 0 0 0 0 1008.0 1007.9 0.0
21/01:00am 26.3 33.6 26.3 100 0.0 CALM 0 0 0 0 1008.3 1008.2 0.0
21/12:30am 26.7 34.3 26.7 100 0.0 CALM 0 0 0 0 1008.5 1008.4 0.0
21/12:00am 26.5 33.9 26.5 100 0.0 CALM 0 0 0 0 1008.5 1008.4 0.0
 
Date/Time
CST
Temp
°C
App
Temp
°C
Dew
Point
Rel
Hum
%
Delta-T
°C
Wind Press
QNH
hPa
Press
MSL
hPa
Rain
since 9 am
mm
Dir
 
Spd
km/h
Gust
km/h
Spd
kts
Gust
kts
20/11:30pm 26.9 34.6 26.9 100 0.0 CALM 0 0 0 0 1008.6 1008.5 0.0
20/11:00pm 27.2 34.6 26.5 96 0.5 CALM 0 0 0 0 1008.5 1008.4 0.0
20/10:30pm 27.3 34.5 26.1 93 0.9 CALM 0 0 0 0 1008.4 1008.3 0.0
20/10:00pm 27.8 34.3 26.2 91 1.1 N 4 4 2 2 1008.1 1008.0 0.0
20/09:30pm 28.2 34.9 26.0 88 1.6 N 2 4 1 2 1007.6 1007.5 0.0
20/09:00pm 28.9 35.7 26.1 85 2.0 N 2 4 1 2 1007.7 1007.6 0.0
20/08:30pm 29.3 35.6 25.9 82 2.4 NNW 4 4 2 2 1007.2 1007.1 0.0
20/08:00pm 29.7 35.6 25.4 78 3.0 N 4 7 2 4 1006.7 1006.6 0.0
20/07:30pm 30.2 35.5 25.0 73 3.7 N 6 9 3 5 1006.2 1006.1 0.0
20/07:00pm 31.1 35.8 24.0 66 4.9 NNW 6 11 3 6 1005.7 1005.6 0.0
20/06:30pm 31.9 36.1 23.4 60 5.9 NNW 7 15 4 8 1005.5 1005.4 0.0
20/06:00pm 32.7 36.0 22.5 55 7.0 NNW 9 17 5 9 1005.2 1005.1 0.0
20/05:30pm 34.1 37.6 22.2 50 8.2 N 7 15 4 8 1005.1 1005.0 0.0
20/05:00pm 34.3 37.4 21.4 47 8.7 NNW 7 17 4 9 1005.0 1004.9 0.0
20/04:30pm 34.6 36.9 21.3 46 9.0 NW 11 15 6 8 1005.1 1005.0 0.0
20/04:00pm 34.3 36.8 21.7 47 8.6 NW 11 19 6 10 1005.2 1005.1 0.0
20/03:30pm 34.0 37.8 22.7 51 7.8 NW 7 13 4 7 1005.4 1005.3 0.0
20/03:00pm 35.7 40.2 23.7 50 8.4 N 6 9 3 5 1005.5 1005.4 0.0
20/02:30pm 34.6 38.5 23.6 52 7.7 N 9 17 5 9 1005.9 1005.8 0.0
20/02:00pm 34.2 38.5 23.6 54 7.4 WNW 7 11 4 6 1006.4 1006.3 0.0
20/01:30pm 34.4 38.8 23.4 52 7.7 WNW 6 15 3 8 1006.8 1006.7 0.0
20/01:00pm 35.3 39.6 23.3 50 8.4 NNE 6 9 3 5 1007.2 1007.1 0.0
20/12:30pm 35.6 40.1 22.9 48 8.8 E 4 9 2 5 1007.8 1007.7 0.0
20/12:00pm 34.1 38.7 23.2 53 7.6 NNE 4 9 2 5 1008.2 1008.1 0.0
20/11:30am 34.3 39.0 22.7 50 8.0 SE 2 11 1 6 1008.9 1008.8 0.0
20/11:00am 34.0 37.8 22.7 51 7.8 SSW 7 13 4 7 1009.3 1009.2 0.0
20/10:30am 33.0 37.3 23.3 56 6.7 W 6 9 3 5 1009.7 1009.6 0.0
20/10:00am 33.3 38.4 24.7 60 6.1 SW 6 13 3 7 1010.1 1010.0 0.0
20/09:30am 31.8 37.2 25.4 69 4.5 WSW 7 11 4 6 1010.3 1010.2 0.0
20/09:00am 31.3 37.8 26.8 77 3.2 WSW 6 9 3 5 1010.4 1010.3 0.0
20/08:30am 30.5 38.4 27.7 85 2.0 WSW 2 6 1 3 1010.3 1010.2 0.0
20/08:00am 28.8 37.9 28.8 100 0.0 CALM 0 0 0 0 1010.0 1009.9 0.0
20/07:30am 27.1 34.9 27.1 100 0.0 CALM 0 0 0 0 1010.0 1009.9 0.0
20/07:00am 26.0 33.1 26.0 100 0.0 CALM 0 0 0 0 1009.7 1009.6 0.0
20/06:30am 25.0 31.5 25.0 100 0.0 CALM 0 0 0 0 1009.0 1008.9 0.0
20/06:00am 25.0 31.5 25.0 100 0.0 CALM 0 0 0 0 1008.7 1008.6 0.0
20/05:30am 25.2 31.8 25.2 100 0.0 CALM 0 0 0 0 1008.4 1008.3 0.0
20/05:00am 25.4 32.1 25.4 100 0.0 CALM 0 0 0 0 1008.2 1008.1 0.0
20/04:30am 25.3 31.9 25.3 100 0.0 CALM 0 0 0 0 1008.3 1008.2 0.0
20/04:00am 25.3 31.9 25.3 100 0.0 CALM 0 0 0 0 1008.0 1007.9 0.0
20/03:30am 25.6 32.4 25.6 100 0.0 CALM 0 0 0 0 1008.1 1008.0 0.0
20/03:00am 25.7 32.6 25.7 100 0.0 CALM 0 0 0 0 1008.3 1008.2 0.0
20/02:30am 25.9 32.9 25.9 100 0.0 CALM 0 0 0 0 1008.5 1008.4 0.0
20/02:00am 25.9 32.9 25.9 100 0.0 CALM 0 0 0 0 1008.4 1008.3 0.0
20/01:30am 26.0 33.1 26.0 100 0.0 CALM 0 0 0 0 1008.8 1008.7 0.0
20/01:00am 26.4 33.8 26.4 100 0.0 CALM 0 0 0 0 1009.3 1009.2 0.0
20/12:30am 26.5 33.9 26.5 100 0.0 CALM 0 0 0 0 1010.0 1009.9 0.0
20/12:00am 26.8 34.4 26.8 100 0.0 CALM 0 0 0 0 1010.2 1010.1 0.0
 
Date/Time
CST
Temp
°C
App
Temp
°C
Dew
Point
Rel
Hum
%
Delta-T
°C
Wind Press
QNH
hPa
Press
MSL
hPa
Rain
since 9 am
mm
Dir
 
Spd
km/h
Gust
km/h
Spd
kts
Gust
kts
19/11:30pm 26.7 34.3 26.7 100 0.0 CALM 0 0 0 0 1010.2 1010.1 0.0
19/11:00pm 26.6 34.1 26.6 100 0.0 CALM 0 0 0 0 1010.1 1010.0 0.0
19/10:30pm 26.4 33.8 26.4 100 0.0 CALM 0 0 0 0 1009.9 1009.8 0.0
19/10:00pm 27.1 34.7 26.8 98 0.2 CALM 0 0 0 0 1009.9 1009.8 0.0
19/09:30pm 27.8 35.5 26.9 95 0.6 CALM 0 0 0 0 1009.9 1009.8 0.0
19/09:00pm 28.0 35.4 26.4 91 1.1 CALM 0 0 0 0 1009.4 1009.3 0.0
19/08:30pm 28.4 35.2 25.6 85 2.0 CALM 0 0 0 0 1009.1 1009.0 0.0
19/08:00pm 29.4 36.0 25.2 78 3.0 CALM 0 0 0 0 1008.7 1008.6 0.0
19/07:30pm 29.9 35.5 24.8 74 3.6 N 4 6 2 3 1008.0 1007.9 0.0
19/07:00pm 30.7 35.6 24.6 70 4.3 N 7 11 4 6 1007.3 1007.2 0.0
19/06:30pm 31.5 36.7 25.1 69 4.5 N 7 11 4 6 1006.7 1006.6 0.0
19/06:00pm 32.2 36.8 24.8 65 5.2 N 9 15 5 8 1006.4 1006.3 0.0
19/05:30pm 33.2 36.8 23.8 57 6.6 NNE 11 15 6 8 1006.2 1006.1 0.0
19/05:00pm 34.6 38.5 23.6 52 7.7 NNE 9 15 5 8 1006.1 1006.0 0.0
19/04:30pm 34.7 37.6 22.4 48 8.5 NE 11 17 6 9 1006.4 1006.3 0.0
19/04:00pm 35.0 38.2 22.3 47 8.7 NNE 9 19 5 10 1006.4 1006.3 0.0
19/03:30pm 36.0 38.5 21.8 43 9.7 NNE 11 19 6 10 1006.6 1006.5 0.0
19/03:00pm 36.2 39.2 22.7 45 9.4 NNE 11 20 6 11 1006.9 1006.8 0.0
19/02:30pm 35.8 40.4 24.1 51 8.2 NNW 7 17 4 9 1007.4 1007.3 0.0
19/02:00pm 35.0 39.1 23.3 50 8.1 NNW 7 15 4 8 1007.9 1007.8 0.0
19/01:30pm 34.8 39.7 24.4 54 7.3 NNW 6 11 3 6 1008.3 1008.2 0.0
19/01:00pm 35.6 40.6 24.8 53 7.7 NNE 7 15 4 8 1008.7 1008.6 0.0
19/12:30pm 35.5 39.3 22.8 47 8.8 SSE 7 13 4 7 1009.3 1009.2 0.0
19/12:00pm 35.5 39.9 23.8 50 8.2 E 7 11 4 6 1009.6 1009.5 0.0
19/11:30am 34.1 37.6 22.8 51 7.8 SE 9 13 5 7 1010.0 1009.9 0.0
19/11:00am 33.7 37.9 23.4 55 7.2 SW 7 15 4 8 1010.4 1010.3 0.0
19/10:30am 33.3 38.2 24.7 60 6.1 W 7 13 4 7 1010.5 1010.4 0.0
19/10:00am 33.6 39.3 25.0 60 6.1 SW 4 6 2 3 1010.5 1010.4 0.0
19/09:30am 32.0 37.5 25.3 67 4.7 WSW 6 7 3 4 1010.6 1010.5 0.0
19/09:00am 31.6 38.0 26.6 75 3.6 WNW 6 9 3 5 1010.9 1010.8 0.8
19/08:30am 30.5 37.8 27.9 86 1.9 NW 6 9 3 5 1010.9 1010.8 0.8
19/08:00am 29.1 38.0 29.1 100 0.0 NW 2 4 1 2 1010.7 1010.6 0.8
19/07:30am 27.6 35.8 27.6 100 0.0 CALM 0 0 0 0 1010.5 1010.4 0.8
19/07:00am 25.5 32.3 25.5 100 0.0 CALM 0 0 0 0 1010.5 1010.4 0.8
19/06:30am 25.0 31.5 25.0 100 0.0 CALM 0 0 0 0 1010.2 1010.1 0.8
19/06:00am 25.0 31.5 25.0 100 0.0 CALM 0 0 0 0 1009.9 1009.8 0.8
19/05:30am 24.9 31.3 24.9 100 0.0 CALM 0 0 0 0 1009.3 1009.2 0.8
19/05:00am 25.0 31.5 25.0 100 0.0 CALM 0 0 0 0 1009.2 1009.1 0.8
19/04:30am 25.1 31.6 25.1 100 0.0 CALM 0 0 0 0 1009.0 1008.9 0.8
19/04:00am 25.3 31.9 25.3 100 0.0 CALM 0 0 0 0 1009.1 1009.0 0.8
19/03:30am 25.4 32.1 25.4 100 0.0 CALM 0 0 0 0 1008.8 1008.7 0.8
19/03:00am 25.4 32.1 25.4 100 0.0 CALM 0 0 0 0 1008.6 1008.5 0.8
19/02:30am 25.8 32.8 25.8 100 0.0 CALM 0 0 0 0 1008.5 1008.4 0.8
19/02:00am 25.9 32.9 25.9 100 0.0 CALM 0 0 0 0 1008.7 1008.6 0.8
19/01:30am 25.7 32.6 25.7 100 0.0 CALM 0 0 0 0 1008.9 1008.8 0.8
19/01:00am 25.8 32.8 25.8 100 0.0 CALM 0 0 0 0 1009.0 1008.9 0.8
19/12:30am 26.0 33.1 26.0 100 0.0 CALM 0 0 0 0 1009.2 1009.1 0.8
19/12:00am 26.3 33.6 26.3 100 0.0 CALM 0 0 0 0 1009.6 1009.5 0.8
 
Date/Time
CST
Temp
°C
App
Temp
°C
Dew
Point
Rel
Hum
%
Delta-T
°C
Wind Press
QNH
hPa
Press
MSL
hPa
Rain
since 9 am
mm
Dir
 
Spd
km/h
Gust
km/h
Spd
kts
Gust
kts
18/11:30pm 26.4 33.8 26.4 100 0.0 CALM 0 0 0 0 1010.1 1010.0 0.6
18/11:00pm 26.3 33.6 26.3 100 0.0 CALM 0 0 0 0 1010.1 1010.0 0.6
18/10:30pm 26.4 33.8 26.4 100 0.0 CALM 0 0 0 0 1009.5 1009.4 0.6
18/10:00pm 26.5 33.9 26.5 100 0.0 CALM 0 0 0 0 1009.3 1009.2 0.6
18/09:30pm 26.8 34.4 26.8 100 0.0 CALM 0 0 0 0 1009.2 1009.1 0.6
18/09:00pm 26.8 34.4 26.8 100 0.0 CALM 0 0 0 0 1008.4 1008.3 0.6
18/08:30pm 27.0 34.8 27.0 100 0.0 CALM 0 0 0 0 1008.2 1008.1 0.6
18/08:00pm 27.0 34.8 27.0 100 0.0 CALM 0 0 0 0 1007.7 1007.6 0.6
18/07:30pm 27.3 35.3 27.3 100 0.0 CALM 0 0 0 0 1007.6 1007.5 0.6
18/07:00pm 27.3 34.9 27.3 100 0.0 SW 2 4 1 2 1007.1 1007.0 0.6
18/06:30pm 27.6 35.3 27.4 99 0.1 SSW 2 6 1 3 1007.0 1006.9 0.6
18/06:00pm 27.6 34.9 26.9 96 0.5 SSW 2 6 1 3 1006.9 1006.8 0.6
18/05:30pm 28.9 36.6 28.0 95 0.7 WSW 4 9 2 5 1006.7 1006.6 0.6
18/05:00pm 28.8 35.9 27.2 91 1.2 WNW 4 7 2 4 1007.1 1007.0 0.6
18/04:30pm 28.3 33.6 24.9 82 2.4 SW 6 13 3 7 1007.2 1007.1 0.6
18/04:00pm 31.9 37.9 26.0 71 4.2 N 6 15 3 8 1007.1 1007.0 0.6
18/03:30pm 32.4 37.1 25.5 67 4.9 NNW 11 20 6 11 1006.9 1006.8 0.6
18/03:00pm 33.0 37.2 24.7 61 5.9 NNW 11 20 6 11 1006.9 1006.8 0.6
18/02:30pm 34.4 38.7 24.9 57 6.7 NNW 11 20 6 11 1007.0 1006.9 0.6
18/02:00pm 34.3 38.5 25.4 60 6.3 NW 13 28 7 15 1007.5 1007.4 0.6
18/01:30pm 34.2 39.5 25.9 62 6.0 NW 9 20 5 11 1008.0 1007.9 0.6

Other Formats:

Comma delimited format used in spreadsheet applications
http://www.bom.gov.au/fwo/IDD60801/IDD60801.94109.axf

JavaScript Object Notation format (JSON) in row-major order
http://www.bom.gov.au/fwo/IDD60801/IDD60801.94109.json